Time;durP1;ratioP1;P1;durP2;ratioP2;P2;SDS_P1;SDS_P2;PMS_P1;PMS_P2;Temp;Humidity;BMP_temperature;BMP_pressure;BME280_temperature;BME280_humidity;BME280_pressure;Samples;Min_cycle;Max_cycle;Signal;HPM_P1;HPM_P2
2021/10/25 00:02:14;;;;;;;14.95;9.38;;;24.00;38.10;;;;;;6156843;28;81517;-66
2021/10/25 00:05:14;;;;;;;16.13;9.27;;;24.00;38.10;;;;;;6157182;28;82018;-66
2021/10/25 00:08:15;;;;;;;15.07;8.90;;;24.00;38.20;;;;;;6160257;28;81062;-66
2021/10/25 00:11:15;;;;;;;14.02;8.45;;;24.00;39.00;;;;;;6158051;28;80682;-66
2021/10/25 00:14:16;;;;;;;12.75;8.18;;;24.00;38.70;;;;;;6158738;28;83243;-66
2021/10/25 00:17:16;;;;;;;17.10;9.45;;;24.00;39.00;;;;;;6159114;28;80567;-66
2021/10/25 00:20:19;;;;;;;15.10;8.50;;;24.00;39.20;;;;;;6158123;28;80630;-66
2021/10/25 00:23:20;;;;;;;14.80;8.38;;;24.00;39.20;;;;;;6157897;28;80672;-66
2021/10/25 00:26:20;;;;;;;16.98;9.68;;;24.00;40.20;;;;;;6158025;28;80638;-66
2021/10/25 00:29:22;;;;;;;15.57;8.52;;;24.00;39.40;;;;;;6141014;28;83761;-66
2021/10/25 00:32:22;;;;;;;13.93;8.45;;;24.00;39.20;;;;;;6157095;28;80610;-67
2021/10/25 00:35:23;;;;;;;14.68;9.10;;;24.00;39.00;;;;;;6141445;28;83197;-66
2021/10/25 00:38:23;;;;;;;12.73;8.52;;;24.00;39.20;;;;;;6158114;28;80150;-66
2021/10/25 00:41:24;;;;;;;13.65;8.60;;;24.00;38.70;;;;;;6159343;28;80602;-67
2021/10/25 00:44:26;;;;;;;12.85;7.68;;;24.00;38.70;;;;;;6145754;28;81502;-67
2021/10/25 00:47:27;;;;;;;11.55;7.65;;;24.00;39.10;;;;;;6155915;28;81845;-68
2021/10/25 00:50:27;;;;;;;11.02;7.63;;;24.00;39.10;;;;;;6159602;28;80356;-68
2021/10/25 00:53:28;;;;;;;12.85;8.32;;;23.90;38.70;;;;;;6141327;28;82623;-67
2021/10/25 00:56:30;;;;;;;11.85;7.88;;;23.90;39.00;;;;;;6155835;28;83069;-68
2021/10/25 00:59:32;;;;;;;12.13;7.45;;;23.90;38.80;;;;;;6139009;28;81489;-67
2021/10/25 01:02:32;;;;;;;13.00;8.18;;;23.90;38.90;;;;;;6166262;28;81514;-66
2021/10/25 01:05:33;;;;;;;13.85;7.70;;;23.90;38.60;;;;;;6157462;28;82324;-66
2021/10/25 01:08:33;;;;;;;14.60;9.45;;;23.90;39.10;;;;;;6157746;28;80469;-66
2021/10/25 01:11:34;;;;;;;12.93;8.13;;;23.90;38.50;;;;;;6138843;28;81472;-66
2021/10/25 01:14:36;;;;;;;11.60;7.68;;;23.90;38.40;;;;;;6149364;28;82713;-66
2021/10/25 01:17:36;;;;;;;13.73;8.30;;;23.90;38.00;;;;;;6161205;28;80386;-67
2021/10/25 01:20:37;;;;;;;15.10;9.07;;;23.90;38.40;;;;;;6160569;28;80592;-67
2021/10/25 01:23:38;;;;;;;16.35;9.45;;;23.90;38.00;;;;;;6160884;28;89193;-68
2021/10/25 01:26:39;;;;;;;14.55;9.00;;;23.90;38.20;;;;;;6142869;28;83184;-67
2021/10/25 01:29:40;;;;;;;12.73;7.75;;;23.90;38.30;;;;;;6143057;28;83110;-67
2021/10/25 01:32:41;;;;;;;15.13;9.10;;;23.90;38.50;;;;;;6143829;28;82619;-67
2021/10/25 01:35:41;;;;;;;14.52;8.90;;;23.90;38.10;;;;;;6142420;28;83177;-67
2021/10/25 01:38:42;;;;;;;14.77;9.60;;;23.90;38.40;;;;;;6141883;28;83392;-67
2021/10/25 01:41:45;;;;;;;13.32;8.18;;;23.90;38.20;;;;;;6141260;28;82711;-67
2021/10/25 01:44:45;;;;;;;14.55;8.63;;;23.90;38.30;;;;;;6145641;28;83425;-67
2021/10/25 01:47:47;;;;;;;11.05;7.13;;;23.90;38.30;;;;;;6143819;28;82882;-67
2021/10/25 01:50:48;;;;;;;14.88;8.38;;;23.90;38.50;;;;;;6141940;28;82100;-67
2021/10/25 01:53:48;;;;;;;13.48;8.48;;;23.90;38.50;;;;;;6143068;28;81533;-67
2021/10/25 01:56:50;;;;;;;13.88;8.50;;;23.90;38.40;;;;;;6142155;28;83479;-67
2021/10/25 01:59:50;;;;;;;12.68;8.48;;;23.90;38.40;;;;;;6144097;28;83500;-67
2021/10/25 02:02:55;;;;;;;14.45;8.38;;;23.80;38.40;;;;;;6142086;28;83225;-67
2021/10/25 02:06:20;;;;;;;11.50;8.15;;;23.80;38.60;;;;;;6143666;28;83399;-67
2021/10/25 02:09:21;;;;;;;11.30;7.85;;;23.90;38.50;;;;;;6143530;28;83594;-67
2021/10/25 02:12:22;;;;;;;12.63;7.93;;;23.80;38.50;;;;;;6142615;28;83302;-67
2021/10/25 02:15:22;;;;;;;13.68;9.70;;;23.80;38.50;;;;;;6141702;28;81717;-67
2021/10/25 02:18:27;;;;;;;15.10;9.93;;;23.80;37.20;;;;;;6145305;28;83279;-67
2021/10/25 02:21:28;;;;;;;15.23;9.70;;;23.80;36.80;;;;;;6142103;28;83488;-67
2021/10/25 02:24:29;;;;;;;19.77;9.75;;;23.90;37.80;;;;;;6142724;28;83340;-67
2021/10/25 02:27:30;;;;;;;16.05;9.90;;;23.90;37.50;;;;;;6141731;28;82043;-68
2021/10/25 02:30:33;;;;;;;14.55;9.93;;;23.90;37.30;;;;;;6140870;28;82813;-67
2021/10/25 02:33:35;;;;;;;17.50;11.18;;;23.90;36.80;;;;;;6141584;28;81362;-67
2021/10/25 02:36:36;;;;;;;18.13;10.38;;;23.90;36.90;;;;;;6138816;28;83918;-67
2021/10/25 02:39:46;;;;;;;17.38;10.27;;;23.90;36.80;;;;;;6137237;28;85249;-67
2021/10/25 02:42:46;;;;;;;15.52;9.75;;;24.00;36.80;;;;;;6140228;28;84649;-67
2021/10/25 02:45:47;;;;;;;17.67;10.27;;;24.00;36.30;;;;;;6141290;28;85712;-66
2021/10/25 02:48:48;;;;;;;16.10;10.27;;;24.00;36.20;;;;;;6145834;28;84201;-66
2021/10/25 02:51:51;;;;;;;15.52;10.30;;;24.00;36.20;;;;;;6140850;28;84237;-66
2021/10/25 02:54:52;;;;;;;17.35;10.68;;;24.00;35.60;;;;;;6139570;28;85722;-66
2021/10/25 02:57:53;;;;;;;17.35;11.27;;;24.00;36.00;;;;;;6142007;28;85738;-67
2021/10/25 03:00:54;;;;;;;18.27;11.85;;;24.00;35.60;;;;;;6139669;28;84897;-67
2021/10/25 03:03:56;;;;;;;17.38;10.95;;;24.10;35.50;;;;;;6139475;28;84800;-67
2021/10/25 03:06:59;;;;;;;17.13;11.32;;;24.10;35.90;;;;;;6147717;28;85566;-68
2021/10/25 03:10:00;;;;;;;20.13;11.18;;;24.10;35.50;;;;;;6138478;28;85551;-66
2021/10/25 03:13:02;;;;;;;17.30;10.13;;;24.10;35.20;;;;;;6139932;28;85504;-67
2021/10/25 03:16:05;;;;;;;17.42;10.90;;;24.10;35.60;;;;;;6123947;28;85843;-67
2021/10/25 03:19:05;;;;;;;17.55;11.10;;;24.10;35.20;;;;;;6156245;28;87090;-67
2021/10/25 03:22:09;;;;;;;19.20;11.60;;;24.10;35.00;;;;;;6144047;28;85355;-68
2021/10/25 03:25:09;;;;;;;18.55;11.45;;;24.10;34.80;;;;;;6138410;28;85916;-67
2021/10/25 03:28:11;;;;;;;15.85;11.45;;;24.10;35.20;;;;;;6136541;28;85878;-67
2021/10/25 03:31:12;;;;;;;16.13;11.82;;;24.10;34.70;;;;;;6138112;28;84126;-68
2021/10/25 03:34:14;;;;;;;22.55;12.32;;;24.10;34.40;;;;;;6148139;28;85729;-68
2021/10/25 03:37:16;;;;;;;17.92;11.63;;;24.10;34.50;;;;;;6136704;28;85825;-67
2021/10/25 03:40:16;;;;;;;16.73;10.93;;;24.10;34.50;;;;;;6136809;28;86059;-67
2021/10/25 03:43:18;;;;;;;22.40;11.80;;;24.20;34.10;;;;;;6136797;28;85718;-68
2021/10/25 03:46:31;;;;;;;20.52;12.57;;;24.20;34.50;;;;;;6136704;28;84046;-67
2021/10/25 03:56:30;;;;;;;20.33;12.73;;;24.20;34.00;;;;;;6136577;28;84895;-66
2021/10/25 04:03:18;;;;;;;21.30;13.73;;;24.20;34.40;;;;;;6136530;28;85291;-67
2021/10/25 04:27:28;;;;;;;28.95;15.55;;;24.20;35.10;;;;;;6151988;28;85964;-68
2021/10/25 04:30:19;;;;;;;29.42;16.20;;;24.20;34.90;;;;;;6134789;28;84920;-64
2021/10/25 04:33:19;;;;;;;27.98;15.38;;;24.20;35.30;;;;;;6129370;28;84082;-63
2021/10/25 04:36:34;;;;;;;28.20;15.75;;;24.30;34.90;;;;;;6127333;28;85980;-68
2021/10/25 04:39:39;;;;;;;32.72;16.45;;;24.20;35.00;;;;;;6127867;28;86066;-66
2021/10/25 04:42:45;;;;;;;33.45;18.05;;;24.30;35.40;;;;;;6128024;28;85667;-65
2021/10/25 04:45:46;;;;;;;43.85;19.10;;;24.30;35.50;;;;;;6127583;28;85840;-67
2021/10/25 04:48:47;;;;;;;33.95;18.42;;;24.20;37.60;;;;;;6130814;28;85127;-68
2021/10/25 04:51:57;;;;;;;218.00;86.05;;;24.10;39.00;;;;;;6131695;28;84951;-65
2021/10/25 04:55:01;;;;;;;182.38;73.57;;;24.00;40.20;;;;;;6132542;28;85969;-65
2021/10/25 04:58:02;;;;;;;159.98;62.90;;;24.00;40.90;;;;;;6132611;28;85832;-65
2021/10/25 05:01:02;;;;;;;136.07;57.22;;;24.00;41.00;;;;;;6133157;28;84342;-65
2021/10/25 05:04:03;;;;;;;132.80;53.25;;;24.00;42.30;;;;;;6132204;28;88602;-64
2021/10/25 05:07:04;;;;;;;109.72;48.28;;;24.00;42.60;;;;;;6132444;28;84523;-64
2021/10/25 05:10:04;;;;;;;151.48;63.25;;;24.00;43.50;;;;;;6130795;28;86168;-64
2021/10/25 05:13:05;;;;;;;192.60;77.95;;;23.90;44.00;;;;;;6131558;28;85575;-64
2021/10/25 05:16:06;;;;;;;197.45;81.93;;;24.00;44.40;;;;;;6131949;28;85783;-64
2021/10/25 05:19:06;;;;;;;181.75;72.25;;;23.90;43.90;;;;;;6133577;28;83243;-63
2021/10/25 05:22:07;;;;;;;159.10;65.70;;;23.90;44.60;;;;;;6132017;28;85506;-67
2021/10/25 05:25:08;;;;;;;155.85;61.83;;;23.80;44.50;;;;;;6131871;28;84067;-66
2021/10/25 05:28:09;;;;;;;133.52;57.38;;;23.80;44.80;;;;;;6130903;28;85799;-66
2021/10/25 05:31:11;;;;;;;127.72;55.45;;;23.70;45.40;;;;;;6136717;28;83043;-65
2021/10/25 05:34:14;;;;;;;115.03;49.22;;;23.60;45.60;;;;;;6140153;28;85995;-65
2021/10/25 05:37:15;;;;;;;121.63;47.42;;;23.50;46.20;;;;;;6156888;28;83295;-65
2021/10/25 05:40:16;;;;;;;107.40;47.72;;;23.50;46.70;;;;;;6138083;28;84746;-66
2021/10/25 05:43:26;;;;;;;96.53;41.92;;;23.40;46.60;;;;;;6140246;28;90305;-65
2021/10/25 05:46:27;;;;;;;99.20;42.67;;;23.40;46.30;;;;;;6140714;28;86604;-62
2021/10/25 05:49:27;;;;;;;85.22;38.05;;;23.50;46.10;;;;;;6156820;28;85081;-61
2021/10/25 05:52:29;;;;;;;86.43;39.17;;;23.50;46.30;;;;;;6141204;28;85427;-65
2021/10/25 05:55:30;;;;;;;82.25;36.38;;;23.40;46.60;;;;;;6156118;28;83224;-64
2021/10/25 05:58:31;;;;;;;82.85;35.78;;;23.40;46.20;;;;;;6138355;28;85917;-68
2021/10/25 06:04:58;;;;;;;;;;;23.40;46.40;;;;;;6128659;28;85458;-67
2021/10/25 06:08:00;;;;;;;75.82;32.88;;;23.40;47.10;;;;;;6150040;28;85577;-64
2021/10/25 06:11:01;;;;;;;70.05;31.75;;;23.50;46.80;;;;;;6137404;28;83387;-66
2021/10/25 06:14:04;;;;;;;61.97;30.17;;;23.60;46.30;;;;;;6122184;28;85741;-69
2021/10/25 06:17:20;;;;;;;63.03;29.88;;;23.70;46.10;;;;;;6137098;28;85155;-68
2021/10/25 06:20:21;;;;;;;57.90;28.17;;;23.70;45.60;;;;;;6140005;28;86086;-63
2021/10/25 06:23:21;;;;;;;52.17;26.45;;;23.70;45.50;;;;;;6147978;28;83232;-66
2021/10/25 06:26:22;;;;;;;52.53;26.73;;;23.80;45.20;;;;;;6137448;28;85763;-69
2021/10/25 06:29:23;;;;;;;52.67;25.95;;;23.70;45.30;;;;;;6139082;28;85510;-68
2021/10/25 06:32:25;;;;;;;49.50;25.67;;;23.80;45.00;;;;;;6140939;28;84548;-68
2021/10/25 06:35:26;;;;;;;43.47;23.50;;;23.80;44.70;;;;;;6147053;28;86058;-67
2021/10/25 06:38:58;;;;;;;43.85;22.60;;;23.80;45.00;;;;;;6147392;28;82915;-69
2021/10/25 06:41:59;;;;;;;43.20;22.48;;;23.90;44.90;;;;;;6142188;28;84522;-70
2021/10/25 06:45:10;;;;;;;41.40;21.60;;;23.90;44.80;;;;;;6140582;28;85763;-69
2021/10/25 06:48:15;;;;;;;44.15;21.70;;;23.90;44.60;;;;;;6138822;28;85541;-65
2021/10/25 06:51:16;;;;;;;44.47;21.35;;;23.90;44.60;;;;;;6153910;28;84363;-66
2021/10/25 06:54:17;;;;;;;41.63;22.52;;;24.00;44.40;;;;;;6137943;28;85461;-67
2021/10/25 06:57:17;;;;;;;43.88;21.95;;;24.00;44.60;;;;;;6142545;28;85683;-67
2021/10/25 07:00:22;;;;;;;36.00;20.93;;;24.00;44.00;;;;;;6137650;28;85431;-67
2021/10/25 07:03:25;;;;;;;36.03;19.80;;;24.00;44.00;;;;;;6139931;28;83316;-66
2021/10/25 07:06:28;;;;;;;43.20;20.55;;;24.10;44.40;;;;;;6158968;28;84383;-65
2021/10/25 07:09:29;;;;;;;35.00;20.17;;;24.10;44.50;;;;;;6144152;28;84383;-67
2021/10/25 07:12:30;;;;;;;31.88;18.92;;;24.10;44.50;;;;;;6122120;28;85884;-65
2021/10/25 07:15:33;;;;;;;31.45;18.25;;;24.20;44.50;;;;;;6141570;28;85566;-66
2021/10/25 07:19:22;;;;;;;32.97;18.85;;;24.20;44.40;;;;;;6141882;28;84239;-67
2021/10/25 08:03:00;;;;;;;25.20;15.43;;;24.10;46.60;;;;;;6131368;28;84496;-67
2021/10/25 08:05:54;;;;;;;26.83;16.55;;;24.30;46.60;;;;;;6130953;28;86062;-69
2021/10/25 08:12:26;;;;;;;24.73;14.32;;;24.50;46.70;;;;;;6115282;28;85944;-71
2021/10/25 08:15:35;;;;;;;23.52;14.82;;;24.70;45.80;;;;;;6143832;28;83125;-69
2021/10/25 08:21:37;;;;;;;25.10;15.18;;;24.90;44.90;;;;;;6129621;28;85607;-69
2021/10/25 08:24:37;;;;;;;26.13;16.20;;;25.00;44.80;;;;;;6138174;28;84577;-69
2021/10/25 08:27:45;;;;;;;27.92;16.00;;;25.10;44.50;;;;;;6138689;28;85478;-69
2021/10/25 08:30:46;;;;;;;25.67;15.32;;;25.20;44.80;;;;;;6137108;28;86268;-68
2021/10/25 08:34:04;;;;;;;23.85;15.15;;;25.30;44.50;;;;;;6145980;28;85949;-68
2021/10/25 08:40:10;;;;;;;26.15;14.18;;;25.40;44.50;;;;;;6134843;28;86301;-69
2021/10/25 08:43:13;;;;;;;25.50;16.63;;;25.50;44.90;;;;;;6159386;28;83892;-68
2021/10/25 08:46:15;;;;;;;25.25;15.70;;;25.50;45.50;;;;;;6139654;28;86061;-68
2021/10/25 08:49:18;;;;;;;24.98;17.13;;;25.40;43.00;;;;;;6140477;28;85543;-68
2021/10/25 08:52:20;;;;;;;29.02;17.98;;;25.30;40.70;;;;;;6153510;28;83364;-68
2021/10/25 08:55:21;;;;;;;30.13;19.13;;;25.30;39.30;;;;;;6138370;28;86017;-70
2021/10/25 08:58:22;;;;;;;33.50;19.98;;;25.10;38.80;;;;;;6138169;28;83949;-68
2021/10/25 09:01:22;;;;;;;34.72;19.50;;;25.00;37.80;;;;;;6136763;28;83397;-67
2021/10/25 09:04:36;;;;;;;30.60;16.63;;;25.00;37.50;;;;;;6142523;28;89148;-68
2021/10/25 09:07:48;;;;;;;27.55;17.27;;;25.00;37.70;;;;;;6145221;28;85186;-69
2021/10/25 09:10:49;;;;;;;28.00;16.70;;;25.00;36.90;;;;;;6154138;28;84964;-67
2021/10/25 09:13:50;;;;;;;32.80;17.73;;;24.90;37.00;;;;;;6160586;28;83545;-66
2021/10/25 09:16:51;;;;;;;27.50;17.27;;;24.90;36.50;;;;;;6140988;28;86114;-67
2021/10/25 09:20:12;;;;;;;29.35;18.02;;;24.90;36.20;;;;;;6154933;28;82928;-67
2021/10/25 09:23:13;;;;;;;35.38;18.20;;;24.80;35.90;;;;;;6142235;28;85652;-69
2021/10/25 09:26:16;;;;;;;27.17;16.25;;;24.70;35.90;;;;;;6138812;28;85034;-68
2021/10/25 09:29:17;;;;;;;27.10;16.30;;;24.70;35.90;;;;;;6138356;28;84029;-69
2021/10/25 09:32:18;;;;;;;27.88;17.02;;;24.80;36.00;;;;;;6140448;28;85935;-68
2021/10/25 09:35:42;;;;;;;27.65;16.58;;;24.90;36.30;;;;;;6140265;28;83883;-69
2021/10/25 09:52:00;;;;;;;32.35;16.95;;;25.10;36.90;;;;;;6136615;28;85263;-68
2021/10/25 09:55:02;;;;;;;33.83;16.08;;;25.20;36.50;;;;;;6138468;28;85490;-68
2021/10/25 09:58:09;;;;;;;28.73;17.02;;;25.30;36.80;;;;;;6136574;28;85472;-71
2021/10/25 10:01:25;;;;;;;22.67;14.77;;;25.30;36.70;;;;;;6137702;28;85921;-70
2021/10/25 10:04:25;;;;;;;23.80;14.60;;;25.40;36.30;;;;;;6136876;28;90352;-69
2021/10/25 10:07:37;;;;;;;26.23;14.68;;;25.50;36.10;;;;;;6135821;28;85851;-72
2021/10/25 10:10:49;;;;;;;25.77;14.57;;;25.60;35.60;;;;;;6132093;28;86305;-69
2021/10/25 10:13:54;;;;;;;23.17;14.57;;;25.70;36.10;;;;;;6137580;28;85984;-68
2021/10/25 10:17:15;;;;;;;26.10;14.63;;;25.80;36.10;;;;;;6135729;28;85852;-67
2021/10/25 10:20:16;;;;;;;25.90;14.48;;;25.90;36.50;;;;;;6152521;28;84979;-69
2021/10/25 10:23:23;;;;;;;27.50;13.65;;;26.00;36.70;;;;;;6137974;28;84222;-69
2021/10/25 10:26:31;;;;;;;24.50;13.68;;;26.10;36.60;;;;;;6140448;28;85792;-70
2021/10/25 10:29:32;;;;;;;20.13;12.10;;;26.20;36.60;;;;;;6136557;28;85977;-66
2021/10/25 10:32:44;;;;;;;19.52;13.10;;;26.30;37.10;;;;;;6127395;28;85771;-64
2021/10/25 10:36:02;;;;;;;23.98;13.32;;;26.40;37.00;;;;;;6129564;28;89777;-68
2021/10/25 10:39:18;;;;;;;18.90;11.93;;;26.40;37.30;;;;;;6144887;28;90422;-69
2021/10/25 10:42:38;;;;;;;20.58;12.10;;;26.50;37.30;;;;;;6130881;28;83287;-67
2021/10/25 10:45:44;;;;;;;22.88;12.73;;;26.60;37.40;;;;;;6125236;28;86007;-69
2021/10/25 10:48:45;;;;;;;22.55;13.05;;;26.60;37.30;;;;;;6130203;28;85943;-69
2021/10/25 10:51:46;;;;;;;23.65;12.48;;;26.70;37.20;;;;;;6133967;28;83016;-69
2021/10/25 10:54:59;;;;;;;20.88;12.73;;;26.70;37.20;;;;;;6130824;28;84917;-69
2021/10/25 11:01:04;;;;;;;21.35;11.52;;;26.70;36.10;;;;;;6131869;28;82978;-70
2021/10/25 11:04:07;;;;;;;17.75;10.57;;;26.80;36.60;;;;;;6132430;28;83301;-67
2021/10/25 11:07:08;;;;;;;21.27;11.07;;;26.80;36.30;;;;;;6131737;28;83444;-67
2021/10/25 11:10:10;;;;;;;18.80;10.55;;;26.90;36.30;;;;;;6129287;28;83968;-65
2021/10/25 11:13:16;;;;;;;20.83;11.15;;;27.00;36.50;;;;;;6130020;28;85027;-70
2021/10/25 11:19:32;;;;;;;21.10;9.90;;;27.00;37.20;;;;;;6130747;28;87792;-67
2021/10/25 11:22:33;;;;;;;17.55;9.95;;;27.00;36.40;;;;;;6134142;28;83161;-72
2021/10/25 11:25:33;;;;;;;17.35;9.95;;;27.00;35.50;;;;;;6133159;28;80388;-71
2021/10/25 11:28:34;;;;;;;13.38;8.65;;;27.00;35.80;;;;;;6135000;28;80540;-71
2021/10/25 11:31:34;;;;;;;13.40;8.68;;;27.00;36.10;;;;;;6141185;28;81637;-70
2021/10/25 11:34:36;;;;;;;18.75;9.20;;;27.00;35.30;;;;;;6157381;28;80761;-68
2021/10/25 11:37:38;;;;;;;13.68;8.70;;;27.00;35.00;;;;;;6158774;28;80650;-69
2021/10/25 11:40:38;;;;;;;12.23;7.78;;;27.00;34.80;;;;;;6155937;28;80230;-69
2021/10/25 11:43:39;;;;;;;11.93;7.88;;;27.00;35.10;;;;;;6140058;28;81701;-70
2021/10/25 11:46:41;;;;;;;14.15;7.70;;;27.00;35.40;;;;;;6146568;28;80987;-70
2021/10/25 11:49:41;;;;;;;12.40;7.70;;;27.00;34.90;;;;;;6156389;28;80312;-71
2021/10/25 11:52:42;;;;;;;13.23;8.10;;;27.00;34.80;;;;;;6155188;28;81405;-70
2021/10/25 11:55:42;;;;;;;12.63;8.05;;;27.00;35.20;;;;;;6155688;28;81274;-69
2021/10/25 11:58:43;;;;;;;15.35;8.18;;;27.00;35.60;;;;;;6130535;28;81669;-69
2021/10/25 12:01:44;;;;;;;14.57;7.38;;;27.10;34.80;;;;;;6148592;28;81136;-69
2021/10/25 12:04:45;;;;;;;10.38;7.40;;;27.10;34.70;;;;;;6142584;28;83580;-67
2021/10/25 12:07:45;;;;;;;20.42;8.05;;;27.10;34.00;;;;;;6146020;28;80626;-70
2021/10/25 12:10:47;;;;;;;14.98;7.25;;;27.10;34.20;;;;;;6151714;28;81545;-67
2021/10/25 12:13:48;;;;;;;11.65;7.72;;;27.10;35.00;;;;;;6159341;28;81973;-70
2021/10/25 12:16:49;;;;;;;11.02;6.78;;;27.10;34.50;;;;;;6159890;28;80366;-68
2021/10/25 12:19:50;;;;;;;10.07;6.25;;;27.10;34.20;;;;;;6149870;28;81075;-70
2021/10/25 12:22:51;;;;;;;12.20;5.97;;;27.10;34.20;;;;;;6155998;28;80950;-69
2021/10/25 12:25:51;;;;;;;12.05;6.80;;;27.10;34.10;;;;;;6139704;28;81645;-69
2021/10/25 12:28:52;;;;;;;16.55;7.18;;;27.10;34.00;;;;;;6151408;28;81335;-69
2021/10/25 12:31:53;;;;;;;11.18;6.93;;;27.10;33.40;;;;;;6133404;28;81184;-69
2021/10/25 12:34:53;;;;;;;10.43;6.35;;;27.10;33.60;;;;;;6159510;28;80461;-71
2021/10/25 12:37:54;;;;;;;11.00;6.53;;;27.10;34.20;;;;;;6154815;28;80613;-69
2021/10/25 12:40:54;;;;;;;13.40;6.40;;;27.10;33.70;;;;;;6141785;28;82867;-68
2021/10/25 12:43:55;;;;;;;10.85;6.30;;;27.10;33.70;;;;;;6157352;28;81572;-70
2021/10/25 12:46:56;;;;;;;10.25;5.85;;;27.10;33.30;;;;;;6156940;28;80590;-68
2021/10/25 12:49:56;;;;;;;13.18;6.00;;;27.20;33.80;;;;;;6159452;28;81401;-69
2021/10/25 12:52:57;;;;;;;10.05;5.70;;;27.20;33.60;;;;;;6157714;28;80501;-70
2021/10/25 12:55:57;;;;;;;11.20;5.70;;;27.10;33.10;;;;;;6149028;28;81382;-69
2021/10/25 12:58:58;;;;;;;8.68;5.65;;;27.20;33.40;;;;;;6154810;28;81859;-69
2021/10/25 13:01:58;;;;;;;8.98;5.63;;;27.20;33.90;;;;;;6153868;28;80434;-68
2021/10/25 13:04:59;;;;;;;9.63;5.30;;;27.10;33.20;;;;;;6154353;28;81303;-69
2021/10/25 13:07:59;;;;;;;13.30;5.65;;;27.20;32.80;;;;;;6154871;28;80093;-69
2021/10/25 13:11:01;;;;;;;8.55;5.72;;;27.20;33.50;;;;;;6161282;28;81185;-71
2021/10/25 13:14:01;;;;;;;11.35;5.90;;;27.20;34.00;;;;;;6161374;28;80532;-69
2021/10/25 13:17:02;;;;;;;10.90;5.43;;;27.30;33.80;;;;;;6159429;28;81243;-70
2021/10/25 13:20:02;;;;;;;8.05;5.00;;;27.20;33.60;;;;;;6159685;28;80582;-70
2021/10/25 13:23:03;;;;;;;10.40;5.75;;;27.30;33.50;;;;;;6156339;28;81729;-73
2021/10/25 13:26:04;;;;;;;9.05;5.32;;;27.30;33.50;;;;;;6159997;28;81410;-72
2021/10/25 13:29:05;;;;;;;11.65;6.03;;;27.30;32.90;;;;;;6155028;28;82182;-72
2021/10/25 13:32:05;;;;;;;9.45;5.85;;;27.30;33.60;;;;;;6155336;28;80347;-74
2021/10/25 13:35:06;;;;;;;12.02;5.13;;;27.30;33.60;;;;;;6155433;28;80765;-69
2021/10/25 13:38:08;;;;;;;10.13;5.20;;;27.40;33.20;;;;;;6165916;28;80605;-71
2021/10/25 13:41:09;;;;;;;8.63;5.70;;;27.40;32.90;;;;;;6155882;28;80414;-71
2021/10/25 13:44:09;;;;;;;11.38;5.90;;;27.50;33.40;;;;;;6163949;28;80905;-70
2021/10/25 13:47:10;;;;;;;8.32;5.47;;;27.60;33.80;;;;;;6144498;28;80611;-69
2021/10/25 13:50:10;;;;;;;9.93;5.60;;;27.70;33.60;;;;;;6142747;28;81045;-68
2021/10/25 13:53:11;;;;;;;40.38;6.47;;;27.80;33.10;;;;;;6158311;28;81715;-68
2021/10/25 13:56:11;;;;;;;14.23;5.40;;;27.90;33.30;;;;;;6160769;28;80656;-68
2021/10/25 13:59:12;;;;;;;8.15;5.32;;;27.80;34.00;;;;;;6161164;28;80602;-69
2021/10/25 14:02:14;;;;;;;10.15;5.70;;;27.70;33.40;;;;;;6157645;28;82533;-70
2021/10/25 14:05:19;;;;;;;13.63;6.68;;;27.70;34.20;;;;;;6153817;28;80349;-68
2021/10/25 14:08:19;;;;;;;9.17;5.30;;;27.60;33.40;;;;;;6159215;28;80625;-68
2021/10/25 14:11:22;;;;;;;10.15;5.68;;;27.50;33.40;;;;;;6157288;28;81473;-69
2021/10/25 14:14:26;;;;;;;9.95;5.97;;;27.50;33.50;;;;;;6156555;28;80761;-70
2021/10/25 14:17:26;;;;;;;7.65;5.22;;;27.40;33.40;;;;;;6157290;28;80695;-69
2021/10/25 14:20:27;;;;;;;12.15;6.10;;;27.40;33.70;;;;;;6142248;28;80210;-69
2021/10/25 14:23:27;;;;;;;9.25;5.32;;;27.30;33.60;;;;;;6159534;28;80742;-71
2021/10/25 14:26:28;;;;;;;16.80;5.63;;;27.20;33.50;;;;;;6155814;28;80550;-70
2021/10/25 14:29:29;;;;;;;11.05;5.50;;;27.20;33.30;;;;;;6150219;28;80638;-70
2021/10/25 14:32:30;;;;;;;10.35;5.63;;;27.10;33.10;;;;;;6157962;28;80894;-69
2021/10/25 14:35:31;;;;;;;9.63;5.82;;;27.00;32.80;;;;;;6154109;28;81959;-68
2021/10/25 14:44:40;;;;;;;169.75;69.07;;;26.80;33.20;;;;;;6155355;28;85784;-72
2021/10/25 14:54:33;;;;;;;282.48;107.68;;;26.70;33.50;;;;;;6147348;28;85433;-71
2021/10/25 14:57:27;;;;;;;201.00;82.57;;;26.60;33.70;;;;;;6149191;28;86722;-69
2021/10/25 15:00:27;;;;;;;177.82;65.82;;;26.50;33.60;;;;;;6154807;28;85224;-70
2021/10/25 15:03:28;;;;;;;146.38;56.10;;;26.40;33.70;;;;;;6146375;28;82979;-70
2021/10/25 15:06:33;;;;;;;127.60;49.47;;;26.40;33.60;;;;;;6152531;28;84342;-70
2021/10/25 15:09:34;;;;;;;122.03;46.85;;;26.30;33.60;;;;;;6154090;28;83054;-69
2021/10/25 15:12:34;;;;;;;105.47;41.22;;;26.20;33.20;;;;;;6147782;28;84135;-69
2021/10/25 15:15:35;;;;;;;92.32;34.67;;;26.10;33.20;;;;;;6156110;28;83374;-70
2021/10/25 15:18:36;;;;;;;88.85;32.65;;;26.10;33.90;;;;;;6150567;28;84498;-70
2021/10/25 15:21:39;;;;;;;69.45;29.52;;;26.00;33.80;;;;;;6150628;28;83932;-71
2021/10/25 15:24:41;;;;;;;65.28;26.33;;;25.90;33.80;;;;;;6155310;28;83260;-71
2021/10/25 15:27:43;;;;;;;59.17;24.55;;;25.90;33.60;;;;;;6154466;28;85466;-73
2021/10/25 15:30:43;;;;;;;69.00;25.73;;;25.80;33.80;;;;;;6153291;28;83843;-73
2021/10/25 15:33:44;;;;;;;56.63;23.05;;;25.80;34.50;;;;;;6154101;28;83152;-72
2021/10/25 15:36:44;;;;;;;44.25;19.35;;;25.80;34.70;;;;;;6159207;28;83205;-73
2021/10/25 15:39:45;;;;;;;47.30;19.23;;;25.80;34.50;;;;;;6152411;28;83379;-73
2021/10/25 15:42:47;;;;;;;44.85;17.20;;;25.70;35.00;;;;;;6137641;28;85823;-73
2021/10/25 15:45:48;;;;;;;50.15;18.05;;;25.70;35.20;;;;;;6150791;28;84109;-70
2021/10/25 15:48:48;;;;;;;34.67;15.48;;;25.70;35.10;;;;;;6148426;28;83221;-70
2021/10/25 15:51:50;;;;;;;34.58;13.25;;;25.70;34.60;;;;;;6156689;28;84074;-68
2021/10/25 15:54:51;;;;;;;36.45;14.13;;;25.70;34.80;;;;;;6157607;28;83202;-68
2021/10/25 15:57:56;;;;;;;33.55;13.32;;;25.70;34.80;;;;;;6157913;28;83973;-68
2021/10/25 16:00:56;;;;;;;32.15;13.35;;;25.70;35.20;;;;;;6161467;28;83458;-68
2021/10/25 16:03:57;;;;;;;29.30;13.73;;;25.60;35.80;;;;;;6156344;28;83092;-68
2021/10/25 16:06:57;;;;;;;28.95;12.90;;;25.60;35.70;;;;;;6148184;28;85128;-69
2021/10/25 16:09:58;;;;;;;29.05;11.52;;;25.60;36.00;;;;;;6156058;28;87138;-67
2021/10/25 16:12:59;;;;;;;26.00;12.25;;;25.60;35.90;;;;;;6154487;28;83421;-67
2021/10/25 16:16:00;;;;;;;27.15;11.57;;;25.60;36.10;;;;;;6152949;28;83281;-67
2021/10/25 16:19:00;;;;;;;30.70;12.02;;;25.60;36.00;;;;;;6138317;28;83599;-67
2021/10/25 16:22:01;;;;;;;23.95;11.95;;;25.50;35.90;;;;;;6153796;28;83216;-67
2021/10/25 16:25:02;;;;;;;25.20;10.93;;;25.50;36.10;;;;;;6154631;28;83136;-68
2021/10/25 16:28:02;;;;;;;25.65;12.50;;;25.50;36.90;;;;;;6154019;28;83176;-66
2021/10/25 16:31:03;;;;;;;26.23;11.93;;;25.50;37.20;;;;;;6137392;28;83313;-67
2021/10/25 16:34:03;;;;;;;23.52;11.48;;;25.50;37.60;;;;;;6151748;28;83886;-66
2021/10/25 16:37:04;;;;;;;22.33;10.82;;;25.50;37.80;;;;;;6154163;28;84201;-67
2021/10/25 16:40:05;;;;;;;24.42;11.38;;;25.50;37.80;;;;;;6149960;28;83506;-67
2021/10/25 16:43:05;;;;;;;35.72;12.45;;;25.60;38.30;;;;;;6151872;28;83452;-68
2021/10/25 16:46:07;;;;;;;26.25;12.50;;;25.50;38.30;;;;;;6150133;28;83482;-67
2021/10/25 16:49:14;;;;;;;23.65;12.10;;;25.50;38.50;;;;;;6151680;28;83334;-68
2021/10/25 16:55:34;;;;;;;24.23;12.43;;;25.50;39.00;;;;;;6158588;28;83094;-67
2021/10/25 17:11:36;;;;;;;27.85;12.75;;;25.60;38.90;;;;;;6152937;28;84578;-69
2021/10/25 17:14:37;;;;;;;27.25;13.00;;;25.50;38.50;;;;;;6140062;28;84802;-73
2021/10/25 17:17:38;;;;;;;24.52;12.98;;;25.50;38.60;;;;;;6157906;28;83399;-70
2021/10/25 17:20:39;;;;;;;24.27;12.25;;;25.50;38.60;;;;;;6157794;28;84843;-70
2021/10/25 17:23:39;;;;;;;25.15;12.32;;;25.50;38.10;;;;;;6140543;28;82946;-69
2021/10/25 17:26:41;;;;;;;24.42;12.73;;;25.50;38.10;;;;;;6156800;28;84235;-70
2021/10/25 17:29:41;;;;;;;23.20;12.27;;;25.50;38.00;;;;;;6158936;28;83187;-73
2021/10/25 17:32:42;;;;;;;24.83;12.50;;;25.50;37.90;;;;;;6155902;28;83052;-75
2021/10/25 17:35:42;;;;;;;24.80;12.88;;;25.50;38.00;;;;;;6151416;28;83148;-74
2021/10/25 17:38:43;;;;;;;22.85;12.27;;;25.40;38.00;;;;;;6157989;28;83618;-72
2021/10/25 17:41:44;;;;;;;24.02;11.75;;;25.50;38.20;;;;;;6160383;28;83410;-69
2021/10/25 17:44:44;;;;;;;24.05;12.45;;;25.50;38.30;;;;;;6157441;28;83427;-68